sensor_id;sensor_type;location;lat;lon;timestamp;temperature;humidity
23629;DHT22;11991;57.150;-2.134;2022-11-20T14:52:19;8.50;99.90
23629;DHT22;11991;57.150;-2.134;2022-11-20T14:54:57;8.40;99.90
23629;DHT22;11991;57.150;-2.134;2022-11-20T15:02:44;8.30;99.90
23629;DHT22;11991;57.150;-2.134;2022-11-20T15:05:13;8.30;99.90
23629;DHT22;11991;57.150;-2.134;2022-11-20T15:07:47;8.30;99.90
23629;DHT22;11991;57.150;-2.134;2022-11-20T15:10:23;8.20;99.90
23629;DHT22;11991;57.150;-2.134;2022-11-20T15:12:55;8.20;99.90
23629;DHT22;11991;57.150;-2.134;2022-11-20T15:15:31;8.10;99.90
23629;DHT22;11991;57.150;-2.134;2022-11-20T15:17:59;8.10;99.90
23629;DHT22;11991;57.150;-2.134;2022-11-20T15:20:31;8.10;99.90
23629;DHT22;11991;57.150;-2.134;2022-11-20T15:22:59;8.10;99.90
23629;DHT22;11991;57.150;-2.134;2022-11-20T15:25:27;8.00;99.90
23629;DHT22;11991;57.150;-2.134;2022-11-20T15:27:56;8.00;99.90
23629;DHT22;11991;57.150;-2.134;2022-11-20T15:30:24;8.00;99.90
23629;DHT22;11991;57.150;-2.134;2022-11-20T15:32:51;7.90;99.90
23629;DHT22;11991;57.150;-2.134;2022-11-20T15:35:19;7.90;99.90
23629;DHT22;11991;57.150;-2.134;2022-11-20T15:37:47;7.90;99.90
23629;DHT22;11991;57.150;-2.134;2022-11-20T15:40:14;7.80;99.90
23629;DHT22;11991;57.150;-2.134;2022-11-20T15:42:42;7.80;99.90
23629;DHT22;11991;57.150;-2.134;2022-11-20T15:48:17;7.70;99.90
23629;DHT22;11991;57.150;-2.134;2022-11-20T15:53:38;7.70;99.90
23629;DHT22;11991;57.150;-2.134;2022-11-20T15:56:14;7.70;99.90
23629;DHT22;11991;57.150;-2.134;2022-11-20T15:58:41;7.60;99.90
23629;DHT22;11991;57.150;-2.134;2022-11-20T16:01:11;7.60;99.90
23629;DHT22;11991;57.150;-2.134;2022-11-20T16:03:39;7.60;99.90
23629;DHT22;11991;57.150;-2.134;2022-11-20T16:06:06;7.60;99.90
23629;DHT22;11991;57.150;-2.134;2022-11-20T16:08:34;7.50;99.90
23629;DHT22;11991;57.150;-2.134;2022-11-20T16:11:01;7.50;99.90
23629;DHT22;11991;57.150;-2.134;2022-11-20T16:13:31;7.50;99.90
23629;DHT22;11991;57.150;-2.134;2022-11-20T16:16:37;7.50;99.90
23629;DHT22;11991;57.150;-2.134;2022-11-20T16:19:06;7.40;99.90
23629;DHT22;11991;57.150;-2.134;2022-11-20T16:21:33;7.40;99.90
23629;DHT22;11991;57.150;-2.134;2022-11-20T16:28:21;7.30;99.90
23629;DHT22;11991;57.150;-2.134;2022-11-20T16:30:49;7.20;99.90
23629;DHT22;11991;57.150;-2.134;2022-11-20T16:33:17;7.20;99.90
23629;DHT22;11991;57.150;-2.134;2022-11-20T16:35:44;7.10;99.90
23629;DHT22;11991;57.150;-2.134;2022-11-20T16:38:11;7.10;99.90
23629;DHT22;11991;57.150;-2.134;2022-11-20T16:40:38;7.10;99.90
23629;DHT22;11991;57.150;-2.134;2022-11-20T16:43:12;7.10;99.90
23629;DHT22;11991;57.150;-2.134;2022-11-20T16:45:42;7.00;99.90
23629;DHT22;11991;57.150;-2.134;2022-11-20T16:48:15;7.00;99.90
23629;DHT22;11991;57.150;-2.134;2022-11-20T16:50:48;7.00;99.90
23629;DHT22;11991;57.150;-2.134;2022-11-20T16:53:17;7.00;99.90
23629;DHT22;11991;57.150;-2.134;2022-11-20T16:55:45;7.00;99.90
23629;DHT22;11991;57.150;-2.134;2022-11-20T16:58:13;7.00;99.90
23629;DHT22;11991;57.150;-2.134;2022-11-20T17:00:41;7.00;99.90
23629;DHT22;11991;57.150;-2.134;2022-11-20T17:03:16;7.00;99.90
23629;DHT22;11991;57.150;-2.134;2022-11-20T17:05:44;6.90;99.90
23629;DHT22;11991;57.150;-2.134;2022-11-20T17:08:14;6.90;99.90
23629;DHT22;11991;57.150;-2.134;2022-11-20T17:10:41;6.90;99.90
23629;DHT22;11991;57.150;-2.134;2022-11-20T17:13:08;6.90;99.90
23629;DHT22;11991;57.150;-2.134;2022-11-20T17:15:37;6.80;99.90
23629;DHT22;11991;57.150;-2.134;2022-11-20T17:18:05;6.80;99.90
23629;DHT22;11991;57.150;-2.134;2022-11-20T17:20:32;6.80;99.90
23629;DHT22;11991;57.150;-2.134;2022-11-20T17:22:59;6.80;99.90
23629;DHT22;11991;57.150;-2.134;2022-11-20T17:25:27;6.80;99.90
23629;DHT22;11991;57.150;-2.134;2022-11-20T17:27:54;6.80;99.90
23629;DHT22;11991;57.150;-2.134;2022-11-20T17:30:21;6.70;99.90
23629;DHT22;11991;57.150;-2.134;2022-11-20T17:32:49;6.70;99.90
23629;DHT22;11991;57.150;-2.134;2022-11-20T17:35:16;6.70;99.90
23629;DHT22;11991;57.150;-2.134;2022-11-20T17:37:44;6.70;99.90
23629;DHT22;11991;57.150;-2.134;2022-11-20T17:40:12;6.60;99.90
23629;DHT22;11991;57.150;-2.134;2022-11-20T17:42:39;6.70;99.90
23629;DHT22;11991;57.150;-2.134;2022-11-20T17:45:06;6.60;99.90
23629;DHT22;11991;57.150;-2.134;2022-11-20T17:47:34;6.70;99.90
23629;DHT22;11991;57.150;-2.134;2022-11-20T17:50:03;6.60;99.90
23629;DHT22;11991;57.150;-2.134;2022-11-20T17:52:31;6.60;99.90
23629;DHT22;11991;57.150;-2.134;2022-11-20T17:54:58;6.70;99.90
23629;DHT22;11991;57.150;-2.134;2022-11-20T17:57:25;6.60;99.90
23629;DHT22;11991;57.150;-2.134;2022-11-20T18:00:13;6.70;99.90
23629;DHT22;11991;57.150;-2.134;2022-11-20T18:02:42;6.70;99.90
23629;DHT22;11991;57.150;-2.134;2022-11-20T18:05:10;6.70;99.90
23629;DHT22;11991;57.150;-2.134;2022-11-20T18:07:37;6.70;99.90
23629;DHT22;11991;57.150;-2.134;2022-11-20T18:10:08;6.70;99.90
23629;DHT22;11991;57.150;-2.134;2022-11-20T18:12:35;6.70;99.90
23629;DHT22;11991;57.150;-2.134;2022-11-20T18:15:03;6.70;99.90
23629;DHT22;11991;57.150;-2.134;2022-11-20T18:17:30;6.70;99.90
23629;DHT22;11991;57.150;-2.134;2022-11-20T18:19:57;6.70;99.90
23629;DHT22;11991;57.150;-2.134;2022-11-20T18:22:45;6.60;99.90
23629;DHT22;11991;57.150;-2.134;2022-11-20T18:25:13;6.60;99.90
23629;DHT22;11991;57.150;-2.134;2022-11-20T18:27:40;6.60;99.90
23629;DHT22;11991;57.150;-2.134;2022-11-20T18:30:08;6.50;99.90
23629;DHT22;11991;57.150;-2.134;2022-11-20T18:32:36;6.50;99.90
23629;DHT22;11991;57.150;-2.134;2022-11-20T18:35:04;6.50;99.90
23629;DHT22;11991;57.150;-2.134;2022-11-20T18:37:32;6.50;99.90
23629;DHT22;11991;57.150;-2.134;2022-11-20T18:39:59;6.50;99.90
23629;DHT22;11991;57.150;-2.134;2022-11-20T18:42:27;6.40;99.90
23629;DHT22;11991;57.150;-2.134;2022-11-20T18:45:40;6.40;99.90
23629;DHT22;11991;57.150;-2.134;2022-11-20T18:48:07;6.40;99.90
23629;DHT22;11991;57.150;-2.134;2022-11-20T18:50:35;6.30;99.90
23629;DHT22;11991;57.150;-2.134;2022-11-20T18:53:02;6.30;99.90
23629;DHT22;11991;57.150;-2.134;2022-11-20T18:55:30;6.30;99.90
23629;DHT22;11991;57.150;-2.134;2022-11-20T18:57:57;6.30;99.90
23629;DHT22;11991;57.150;-2.134;2022-11-20T19:00:50;6.30;99.90
23629;DHT22;11991;57.150;-2.134;2022-11-20T19:03:17;6.30;99.90
23629;DHT22;11991;57.150;-2.134;2022-11-20T19:05:45;6.30;99.90
23629;DHT22;11991;57.150;-2.134;2022-11-20T19:08:12;6.30;99.90
23629;DHT22;11991;57.150;-2.134;2022-11-20T19:10:40;6.30;99.90
23629;DHT22;11991;57.150;-2.134;2022-11-20T19:13:07;6.20;99.90
23629;DHT22;11991;57.150;-2.134;2022-11-20T19:15:35;6.20;99.90
23629;DHT22;11991;57.150;-2.134;2022-11-20T19:18:03;6.10;99.90
23629;DHT22;11991;57.150;-2.134;2022-11-20T19:20:31;6.00;99.90
23629;DHT22;11991;57.150;-2.134;2022-11-20T19:23:12;6.00;99.90
23629;DHT22;11991;57.150;-2.134;2022-11-20T19:25:39;5.90;99.90
23629;DHT22;11991;57.150;-2.134;2022-11-20T19:28:07;5.80;99.90
23629;DHT22;11991;57.150;-2.134;2022-11-20T19:30:38;5.80;99.90
23629;DHT22;11991;57.150;-2.134;2022-11-20T19:33:07;5.80;99.90
23629;DHT22;11991;57.150;-2.134;2022-11-20T19:35:35;5.80;99.90
23629;DHT22;11991;57.150;-2.134;2022-11-20T19:38:05;5.80;99.90
23629;DHT22;11991;57.150;-2.134;2022-11-20T19:40:33;5.80;99.90
23629;DHT22;11991;57.150;-2.134;2022-11-20T19:43:09;5.80;99.90
23629;DHT22;11991;57.150;-2.134;2022-11-20T19:45:36;5.80;99.90
23629;DHT22;11991;57.150;-2.134;2022-11-20T19:48:03;5.70;99.90
23629;DHT22;11991;57.150;-2.134;2022-11-20T19:50:37;5.70;99.90
23629;DHT22;11991;57.150;-2.134;2022-11-20T19:53:05;5.70;99.90
23629;DHT22;11991;57.150;-2.134;2022-11-20T19:55:39;5.70;99.90
23629;DHT22;11991;57.150;-2.134;2022-11-20T19:58:09;5.60;99.90
23629;DHT22;11991;57.150;-2.134;2022-11-20T20:00:36;5.60;99.90
23629;DHT22;11991;57.150;-2.134;2022-11-20T20:03:04;5.60;99.90
23629;DHT22;11991;57.150;-2.134;2022-11-20T20:05:33;5.60;99.90
23629;DHT22;11991;57.150;-2.134;2022-11-20T20:08:00;5.50;99.90
23629;DHT22;11991;57.150;-2.134;2022-11-20T20:10:27;5.50;99.90
23629;DHT22;11991;57.150;-2.134;2022-11-20T20:12:55;5.50;99.90
23629;DHT22;11991;57.150;-2.134;2022-11-20T20:15:23;5.60;99.90
23629;DHT22;11991;57.150;-2.134;2022-11-20T20:17:51;5.50;99.90
23629;DHT22;11991;57.150;-2.134;2022-11-20T20:20:19;5.50;99.90
23629;DHT22;11991;57.150;-2.134;2022-11-20T20:22:47;5.50;99.90
23629;DHT22;11991;57.150;-2.134;2022-11-20T20:25:14;5.40;99.90
23629;DHT22;11991;57.150;-2.134;2022-11-20T20:27:42;5.40;99.90
23629;DHT22;11991;57.150;-2.134;2022-11-20T20:30:09;5.40;99.90
23629;DHT22;11991;57.150;-2.134;2022-11-20T20:32:38;5.40;99.90
23629;DHT22;11991;57.150;-2.134;2022-11-20T20:35:05;5.30;99.90
23629;DHT22;11991;57.150;-2.134;2022-11-20T20:37:33;5.30;99.90
23629;DHT22;11991;57.150;-2.134;2022-11-20T20:40:00;5.20;99.90
23629;DHT22;11991;57.150;-2.134;2022-11-20T20:42:29;5.20;99.90
23629;DHT22;11991;57.150;-2.134;2022-11-20T20:44:58;5.20;99.90
23629;DHT22;11991;57.150;-2.134;2022-11-20T20:47:36;5.20;99.90
23629;DHT22;11991;57.150;-2.134;2022-11-20T20:50:06;5.20;99.90
23629;DHT22;11991;57.150;-2.134;2022-11-20T20:52:34;5.10;99.90
23629;DHT22;11991;57.150;-2.134;2022-11-20T20:55:03;5.10;99.90
23629;DHT22;11991;57.150;-2.134;2022-11-20T20:57:30;5.20;99.90
23629;DHT22;11991;57.150;-2.134;2022-11-20T20:59:57;5.10;99.90
23629;DHT22;11991;57.150;-2.134;2022-11-20T21:02:25;5.10;99.90
23629;DHT22;11991;57.150;-2.134;2022-11-20T21:04:52;5.00;99.90
23629;DHT22;11991;57.150;-2.134;2022-11-20T21:07:21;5.00;99.90
23629;DHT22;11991;57.150;-2.134;2022-11-20T21:09:52;4.90;99.90
23629;DHT22;11991;57.150;-2.134;2022-11-20T21:12:19;4.80;99.90
23629;DHT22;11991;57.150;-2.134;2022-11-20T21:14:46;4.80;99.90
23629;DHT22;11991;57.150;-2.134;2022-11-20T21:17:14;4.80;99.90
23629;DHT22;11991;57.150;-2.134;2022-11-20T21:19:45;4.80;99.90
23629;DHT22;11991;57.150;-2.134;2022-11-20T21:22:13;4.80;99.90
23629;DHT22;11991;57.150;-2.134;2022-11-20T21:24:46;4.80;99.90
23629;DHT22;11991;57.150;-2.134;2022-11-20T21:27:14;4.80;99.90
23629;DHT22;11991;57.150;-2.134;2022-11-20T21:29:41;4.80;99.90
23629;DHT22;11991;57.150;-2.134;2022-11-20T21:32:08;4.80;99.90
23629;DHT22;11991;57.150;-2.134;2022-11-20T21:34:35;4.70;99.90
23629;DHT22;11991;57.150;-2.134;2022-11-20T21:37:03;4.70;99.90
23629;DHT22;11991;57.150;-2.134;2022-11-20T21:39:32;4.70;99.90
23629;DHT22;11991;57.150;-2.134;2022-11-20T21:41:59;4.70;99.90
23629;DHT22;11991;57.150;-2.134;2022-11-20T21:44:26;4.70;99.90
23629;DHT22;11991;57.150;-2.134;2022-11-20T21:46:58;4.70;99.90
23629;DHT22;11991;57.150;-2.134;2022-11-20T21:49:25;4.70;99.90
23629;DHT22;11991;57.150;-2.134;2022-11-20T21:51:52;4.70;99.90
23629;DHT22;11991;57.150;-2.134;2022-11-20T21:54:20;4.70;99.90
23629;DHT22;11991;57.150;-2.134;2022-11-20T21:56:47;4.60;99.90
23629;DHT22;11991;57.150;-2.134;2022-11-20T21:59:15;4.60;99.90
23629;DHT22;11991;57.150;-2.134;2022-11-20T22:01:42;4.60;99.90
23629;DHT22;11991;57.150;-2.134;2022-11-20T22:04:13;4.60;99.90
23629;DHT22;11991;57.150;-2.134;2022-11-20T22:06:44;4.60;99.90
23629;DHT22;11991;57.150;-2.134;2022-11-20T22:09:12;4.50;99.90
23629;DHT22;11991;57.150;-2.134;2022-11-20T22:11:39;4.50;99.90
23629;DHT22;11991;57.150;-2.134;2022-11-20T22:14:09;4.40;99.90
23629;DHT22;11991;57.150;-2.134;2022-11-20T22:16:52;4.40;99.90
23629;DHT22;11991;57.150;-2.134;2022-11-20T22:19:20;4.40;99.90
23629;DHT22;11991;57.150;-2.134;2022-11-20T22:21:48;4.50;99.90
23629;DHT22;11991;57.150;-2.134;2022-11-20T22:24:21;4.50;99.90
23629;DHT22;11991;57.150;-2.134;2022-11-20T22:26:49;4.40;99.90
23629;DHT22;11991;57.150;-2.134;2022-11-20T22:29:19;4.40;99.90
23629;DHT22;11991;57.150;-2.134;2022-11-20T22:31:49;4.30;99.90
23629;DHT22;11991;57.150;-2.134;2022-11-20T22:34:17;4.30;99.90
23629;DHT22;11991;57.150;-2.134;2022-11-20T22:36:45;4.30;99.90
23629;DHT22;11991;57.150;-2.134;2022-11-20T22:39:12;4.30;99.90
23629;DHT22;11991;57.150;-2.134;2022-11-20T22:41:39;4.30;99.90
23629;DHT22;11991;57.150;-2.134;2022-11-20T22:44:07;4.30;99.90
23629;DHT22;11991;57.150;-2.134;2022-11-20T22:46:35;4.30;99.90
23629;DHT22;11991;57.150;-2.134;2022-11-20T22:49:05;4.30;99.90
23629;DHT22;11991;57.150;-2.134;2022-11-20T22:51:37;4.40;99.90
23629;DHT22;11991;57.150;-2.134;2022-11-20T22:54:05;4.40;99.90
23629;DHT22;11991;57.150;-2.134;2022-11-20T22:56:33;4.40;99.90
23629;DHT22;11991;57.150;-2.134;2022-11-20T22:59:01;4.40;99.90
23629;DHT22;11991;57.150;-2.134;2022-11-20T23:01:30;4.40;99.90
23629;DHT22;11991;57.150;-2.134;2022-11-20T23:04:02;4.40;99.90
23629;DHT22;11991;57.150;-2.134;2022-11-20T23:06:30;4.40;99.90
23629;DHT22;11991;57.150;-2.134;2022-11-20T23:09:02;4.40;99.90
23629;DHT22;11991;57.150;-2.134;2022-11-20T23:11:31;4.40;99.90
23629;DHT22;11991;57.150;-2.134;2022-11-20T23:14:01;4.40;99.90
23629;DHT22;11991;57.150;-2.134;2022-11-20T23:16:31;4.40;99.90
23629;DHT22;11991;57.150;-2.134;2022-11-20T23:19:02;4.40;99.90
23629;DHT22;11991;57.150;-2.134;2022-11-20T23:21:30;4.40;99.90
23629;DHT22;11991;57.150;-2.134;2022-11-20T23:23:58;4.30;99.90
23629;DHT22;11991;57.150;-2.134;2022-11-20T23:26:28;4.30;99.90
23629;DHT22;11991;57.150;-2.134;2022-11-20T23:28:57;4.30;99.90
23629;DHT22;11991;57.150;-2.134;2022-11-20T23:31:27;4.30;99.90
23629;DHT22;11991;57.150;-2.134;2022-11-20T23:33:54;4.30;99.90
23629;DHT22;11991;57.150;-2.134;2022-11-20T23:36:22;4.20;99.90
23629;DHT22;11991;57.150;-2.134;2022-11-20T23:38:49;4.20;99.90
23629;DHT22;11991;57.150;-2.134;2022-11-20T23:41:17;4.20;99.90
23629;DHT22;11991;57.150;-2.134;2022-11-20T23:43:44;4.20;99.90
23629;DHT22;11991;57.150;-2.134;2022-11-20T23:46:12;4.10;99.90
23629;DHT22;11991;57.150;-2.134;2022-11-20T23:48:43;4.10;99.90
23629;DHT22;11991;57.150;-2.134;2022-11-20T23:51:11;4.00;99.90
23629;DHT22;11991;57.150;-2.134;2022-11-20T23:53:39;4.00;99.90
23629;DHT22;11991;57.150;-2.134;2022-11-20T23:56:06;4.00;99.90
23629;DHT22;11991;57.150;-2.134;2022-11-20T23:58:36;4.00;99.90
